createdAt,value
2019-04-10T00:06:18.973Z,5.13
2019-04-10T00:11:43.191Z,5.23
2019-04-10T00:14:24.047Z,4.93
2019-04-10T00:17:04.807Z,4.53
2019-04-10T00:19:45.520Z,4.03
2019-04-10T00:22:26.335Z,3.60
2019-04-10T00:25:06.715Z,4.37
2019-04-10T00:27:47.175Z,3.50
2019-04-10T00:30:27.503Z,3.97
2019-04-10T00:33:08.217Z,3.50
2019-04-10T00:35:48.441Z,3.63
2019-04-10T00:38:16.121Z,4.03
2019-04-10T00:41:03.885Z,4.03
2019-04-10T00:43:52.139Z,3.93
2019-04-10T00:46:32.542Z,4.20
2019-04-10T00:49:13.494Z,4.53
2019-04-10T00:51:53.814Z,3.70
2019-04-10T00:54:33.809Z,4.23
2019-04-10T00:57:14.920Z,4.57
2019-04-10T00:59:56.815Z,4.30
2019-04-10T01:02:37.259Z,4.73
2019-04-10T01:05:17.355Z,4.67
2019-04-10T01:07:57.542Z,4.33
2019-04-10T01:10:38.750Z,4.70
2019-04-10T01:13:18.850Z,4.77
2019-04-10T01:15:58.921Z,4.43
2019-04-10T01:18:39.517Z,4.90
2019-04-10T01:21:19.984Z,4.47
2019-04-10T01:24:23.694Z,4.07
2019-04-10T01:27:03.493Z,4.60
2019-04-10T01:29:43.964Z,4.70
2019-04-10T01:32:24.538Z,4.27
2019-04-10T01:35:05.692Z,3.97
2019-04-10T01:37:52.088Z,4.17
2019-04-10T01:40:27.575Z,4.00
2019-04-10T01:43:12.821Z,4.77
2019-04-10T01:45:49.730Z,4.10
2019-04-10T01:48:30.165Z,3.83
2019-04-10T01:51:10.813Z,4.50
2019-04-10T01:53:50.863Z,4.00
2019-04-10T01:56:34.633Z,3.73
2019-04-10T01:59:13.849Z,4.00
2019-04-10T02:02:14.635Z,3.90
2019-04-10T02:04:57.134Z,4.03
2019-04-10T02:07:38.194Z,3.87
2019-04-10T02:10:18.837Z,4.60
2019-04-10T02:12:59.072Z,4.70
2019-04-10T02:15:39.685Z,4.83
2019-04-10T02:18:19.691Z,5.10
2019-04-10T02:20:59.746Z,5.03
2019-04-10T02:23:40.637Z,6.07
2019-04-10T02:26:21.323Z,6.23
2019-04-10T02:29:01.734Z,5.50
2019-04-10T02:31:41.957Z,4.97
2019-04-10T02:34:23.249Z,4.27
2019-04-10T02:37:03.338Z,4.13
2019-04-10T02:39:47.723Z,3.60
2019-04-10T02:42:26.620Z,4.30
2019-04-10T02:45:08.297Z,4.10
2019-04-10T02:47:48.507Z,3.77
2019-04-10T02:50:16.605Z,3.70
2019-04-10T02:53:25.625Z,4.23
2019-04-10T02:56:13.622Z,4.27
2019-04-10T02:58:56.520Z,4.23
2019-04-10T03:01:37.935Z,4.90
2019-04-10T03:04:18.424Z,3.80
2019-04-10T03:06:59.812Z,4.70
2019-04-10T03:09:54.859Z,4.40
2019-04-10T03:12:24.531Z,4.43
2019-04-10T03:15:08.598Z,4.43
2019-04-10T03:17:50.993Z,4.67
2019-04-10T03:20:32.101Z,8.10
2019-04-10T03:23:12.132Z,18.93
2019-04-10T03:25:53.031Z,7.03
2019-04-10T03:28:33.546Z,5.77
2019-04-10T03:31:15.740Z,4.83
2019-04-10T03:34:16.778Z,4.00
2019-04-10T03:36:57.978Z,4.37
2019-04-10T03:39:38.515Z,4.13
2019-04-10T03:42:18.947Z,4.60
2019-04-10T03:44:59.414Z,4.23
2019-04-10T03:47:39.733Z,4.23
2019-04-10T03:50:19.474Z,4.17
2019-04-10T03:53:00.184Z,4.70
2019-04-10T03:55:40.976Z,3.70
2019-04-10T03:58:21.308Z,4.50
2019-04-10T04:01:01.467Z,4.13
2019-04-10T04:03:42.582Z,4.57
2019-04-10T04:06:22.482Z,6.67
2019-04-10T04:12:04.483Z,11.13
2019-04-10T04:14:44.598Z,12.67
2019-04-10T04:17:24.599Z,13.83
2019-04-10T04:20:04.608Z,13.70
2019-04-10T04:22:45.984Z,12.57
2019-04-10T04:25:26.026Z,12.10
2019-04-10T04:28:06.677Z,11.57
2019-04-10T04:30:51.715Z,10.47
2019-04-10T04:33:30.002Z,9.80
2019-04-10T04:36:10.306Z,9.43
2019-04-10T04:38:51.403Z,7.73
2019-04-10T04:41:31.894Z,8.73
2019-04-10T04:44:12.378Z,8.80
2019-04-10T04:46:52.725Z,10.30
2019-04-10T04:49:33.605Z,8.90
2019-04-10T04:52:14.279Z,8.57
2019-04-10T04:54:55.243Z,8.07
2019-04-10T04:57:37.834Z,8.67
2019-04-10T05:00:17.418Z,7.77
2019-04-10T05:02:58.215Z,7.80
2019-04-10T05:05:39.130Z,8.27
2019-04-10T05:08:19.674Z,7.80
2019-04-10T05:11:00.163Z,7.10
2019-04-10T05:13:42.399Z,7.80
2019-04-10T05:16:22.838Z,7.70
2019-04-10T05:18:50.468Z,7.33
2019-04-10T05:21:37.565Z,6.97
2019-04-10T05:24:24.614Z,7.70
2019-04-10T05:27:05.716Z,15.80
2019-04-10T05:29:47.084Z,15.23
2019-04-10T05:32:27.378Z,8.37
2019-04-10T05:35:08.978Z,9.17
2019-04-10T05:37:49.967Z,10.17
2019-04-10T05:40:30.145Z,9.97
2019-04-10T05:43:10.062Z,10.40
2019-04-10T05:45:50.683Z,10.83
2019-04-10T05:48:31.592Z,12.00
2019-04-10T05:51:12.558Z,13.70
2019-04-10T05:53:53.688Z,12.77
2019-04-10T05:56:34.344Z,13.83
2019-04-10T05:59:14.685Z,12.50
2019-04-10T06:01:54.746Z,7.83
2019-04-10T06:04:35.679Z,6.67
2019-04-10T06:07:16.966Z,6.87
2019-04-10T06:10:01.994Z,13.13
2019-04-10T06:12:40.066Z,10.97
2019-04-10T06:15:21.059Z,8.00
2019-04-10T06:18:01.159Z,10.07
2019-04-10T06:20:41.761Z,7.30
2019-04-10T06:23:21.458Z,9.07
2019-04-10T06:26:03.434Z,8.87
2019-04-10T06:28:43.445Z,8.53
2019-04-10T06:31:23.353Z,7.70
2019-04-10T06:34:04.589Z,8.33
2019-04-10T06:36:45.919Z,8.40
2019-04-10T06:39:26.807Z,7.57
2019-04-10T06:42:06.720Z,8.23
2019-04-10T06:44:46.797Z,7.83
2019-04-10T06:47:26.849Z,8.07
2019-04-10T06:50:07.003Z,10.53
2019-04-10T06:52:47.191Z,12.20
2019-04-10T06:55:30.178Z,11.50
2019-04-10T06:58:10.207Z,12.00
2019-04-10T07:00:53.279Z,11.67
2019-04-10T07:03:46.943Z,14.40
2019-04-10T07:06:19.872Z,13.33
2019-04-10T07:08:57.157Z,14.27
2019-04-10T07:11:38.658Z,13.70
2019-04-10T07:14:18.967Z,11.20
2019-04-10T07:17:05.017Z,9.80
2019-04-10T07:19:43.661Z,11.67
2019-04-10T07:22:23.575Z,22.27
2019-04-10T07:25:04.726Z,26.23
2019-04-10T07:27:45.919Z,28.23
2019-04-10T07:30:26.713Z,29.43
2019-04-10T07:33:05.847Z,32.33
2019-04-10T07:35:55.163Z,32.07
2019-04-10T07:38:35.019Z,31.80
2019-04-10T07:41:21.227Z,32.40
2019-04-10T07:43:57.315Z,37.00
2019-04-10T07:46:38.215Z,36.17
2019-04-10T07:49:19.431Z,37.70
2019-04-10T07:52:01.918Z,38.93
2019-04-10T07:54:44.569Z,38.30
2019-04-10T07:57:24.554Z,37.20
2019-04-10T08:00:06.675Z,37.83
2019-04-10T08:02:46.989Z,37.97
2019-04-10T08:08:40.422Z,38.87
2019-04-10T08:11:20.407Z,37.87
2019-04-10T08:14:01.359Z,36.57
2019-04-10T08:16:41.608Z,37.83
2019-04-10T08:19:21.846Z,36.57
2019-04-10T08:22:01.751Z,36.63
2019-04-10T08:24:45.741Z,35.67
2019-04-10T08:27:25.612Z,35.30
2019-04-10T08:30:07.397Z,34.70
2019-04-10T08:32:57.065Z,36.17
2019-04-10T08:35:31.500Z,36.37
2019-04-10T08:38:11.489Z,35.67
2019-04-10T08:40:52.319Z,34.33
2019-04-10T08:43:32.557Z,33.77
2019-04-10T08:46:12.919Z,32.97
2019-04-10T08:48:52.493Z,32.73
2019-04-10T08:51:33.183Z,33.30
2019-04-10T08:54:14.116Z,31.80
2019-04-10T08:56:52.633Z,33.63
2019-04-10T08:59:40.212Z,30.60
2019-04-10T09:02:21.918Z,30.57
2019-04-10T09:05:01.740Z,30.87
2019-04-10T09:07:41.557Z,31.70
2019-04-10T09:10:22.647Z,30.40
2019-04-10T09:13:04.171Z,29.03
2019-04-10T09:15:44.034Z,27.87
2019-04-10T09:18:25.214Z,28.87
2019-04-10T09:21:05.502Z,28.90
2019-04-10T09:23:52.447Z,28.00
2019-04-10T09:26:28.538Z,29.07
2019-04-10T09:29:08.837Z,28.10
2019-04-10T09:31:50.244Z,27.90
2019-04-10T09:34:18.009Z,29.67
2019-04-10T09:37:06.003Z,29.27
2019-04-10T09:39:55.371Z,27.90
2019-04-10T09:42:36.577Z,27.60
2019-04-10T09:45:17.791Z,27.37
2019-04-10T09:47:57.937Z,28.00
2019-04-10T09:50:37.735Z,28.17
2019-04-10T09:53:19.029Z,27.10
2019-04-10T09:55:46.991Z,26.20
2019-04-10T09:58:34.361Z,26.73
2019-04-10T10:01:22.067Z,24.87
2019-04-10T10:03:50.901Z,25.53
2019-04-10T10:06:26.059Z,27.60
2019-04-10T10:09:08.384Z,26.20
2019-04-10T10:11:49.761Z,26.10
2019-04-10T10:14:31.927Z,25.60
2019-04-10T10:17:13.170Z,25.17
2019-04-10T10:19:53.847Z,25.17
2019-04-10T10:22:34.393Z,24.53
2019-04-10T10:25:15.228Z,23.97
2019-04-10T10:27:56.497Z,23.47
2019-04-10T10:33:50.030Z,22.27
2019-04-10T10:36:40.820Z,22.30
2019-04-10T10:42:13.865Z,22.67
2019-04-10T10:44:54.403Z,22.87
2019-04-10T10:47:34.285Z,23.20
2019-04-10T10:50:15.178Z,21.60
2019-04-10T10:52:55.615Z,22.57
2019-04-10T10:55:35.819Z,23.40
2019-04-10T10:58:15.517Z,24.03
2019-04-10T11:00:55.739Z,25.43
2019-04-10T11:03:35.649Z,22.20
2019-04-10T11:06:16.735Z,22.87
2019-04-10T11:08:57.856Z,22.77
2019-04-10T11:11:25.489Z,23.20
2019-04-10T11:14:13.224Z,22.93
2019-04-10T11:16:56.115Z,23.50
2019-04-10T11:19:35.487Z,20.87
2019-04-10T11:22:21.800Z,18.87
2019-04-10T11:24:58.121Z,19.43
2019-04-10T11:27:25.798Z,20.07
2019-04-10T11:30:13.574Z,17.93
2019-04-10T11:33:02.610Z,18.10
2019-04-10T11:35:43.935Z,18.57
2019-04-10T11:38:22.093Z,17.27
2019-04-10T11:40:52.071Z,18.50
2019-04-10T11:43:39.322Z,17.77
2019-04-10T11:46:08.116Z,18.20
2019-04-10T11:48:55.576Z,17.60
2019-04-10T11:51:46.152Z,18.83
2019-04-10T11:54:28.588Z,18.57
2019-04-10T11:57:09.952Z,19.13
2019-04-10T11:59:50.247Z,19.73
2019-04-10T12:02:32.097Z,19.13
2019-04-10T12:05:18.500Z,19.30
2019-04-10T12:13:19.929Z,19.57
2019-04-10T12:16:00.995Z,21.20
2019-04-10T12:18:41.163Z,21.20
2019-04-10T12:21:21.870Z,21.87
2019-04-10T12:24:01.692Z,22.77
2019-04-10T12:26:42.338Z,22.23
2019-04-10T12:29:22.573Z,22.80
2019-04-10T12:32:04.194Z,22.80
2019-04-10T12:34:44.506Z,21.03
2019-04-10T12:37:24.216Z,23.70
2019-04-10T12:40:05.491Z,24.53
2019-04-10T12:42:46.136Z,25.07
2019-04-10T12:45:26.432Z,26.93
2019-04-10T12:48:06.418Z,28.90
2019-04-10T12:50:47.461Z,26.67
2019-04-10T12:53:27.583Z,25.50
2019-04-10T12:55:57.747Z,30.03
2019-04-10T12:58:46.698Z,26.60
2019-04-10T13:01:28.956Z,25.43
2019-04-10T13:04:08.789Z,30.50
2019-04-10T13:06:51.484Z,31.50
2019-04-10T13:09:31.769Z,33.97
2019-04-10T13:12:13.177Z,33.93
2019-04-10T13:14:53.030Z,35.20
2019-04-10T13:17:20.699Z,34.27
2019-04-10T13:23:16.367Z,35.07
2019-04-10T13:26:01.796Z,34.93
2019-04-10T13:28:41.496Z,34.07
2019-04-10T13:31:21.487Z,35.27
2019-04-10T13:34:01.397Z,35.17
2019-04-10T13:36:42.198Z,33.80
2019-04-10T13:39:22.450Z,32.57
2019-04-10T13:42:03.207Z,31.90
2019-04-10T13:44:42.831Z,31.67
2019-04-10T13:47:23.696Z,24.60
2019-04-10T13:50:04.263Z,23.63
2019-04-10T13:52:46.714Z,23.37
2019-04-10T13:55:28.356Z,24.73
2019-04-10T13:58:08.816Z,25.93
2019-04-10T14:00:49.764Z,29.63
2019-04-10T14:03:30.144Z,29.13
2019-04-10T14:06:11.637Z,29.50
2019-04-10T14:09:10.946Z,30.77
2019-04-10T14:11:21.532Z,30.50
2019-04-10T14:14:08.565Z,30.77
2019-04-10T14:16:48.870Z,31.63
2019-04-10T14:19:29.875Z,34.50
2019-04-10T14:22:09.948Z,35.60
2019-04-10T14:24:51.165Z,34.67
2019-04-10T14:27:32.225Z,32.20
2019-04-10T14:30:18.794Z,32.20
2019-04-10T14:32:59.313Z,29.27
2019-04-10T14:35:39.289Z,30.00
2019-04-10T14:38:19.372Z,30.03
2019-04-10T14:40:59.378Z,28.67
2019-04-10T14:43:39.744Z,30.03
2019-04-10T14:46:20.684Z,29.87
2019-04-10T14:49:00.723Z,28.93
2019-04-10T14:51:40.840Z,28.80
2019-04-10T14:54:21.717Z,28.80
2019-04-10T14:57:02.343Z,28.43
2019-04-10T14:59:42.945Z,27.93
2019-04-10T15:02:24.358Z,28.83
2019-04-10T15:04:53.026Z,29.63
2019-04-10T15:07:41.041Z,29.53
2019-04-10T15:10:20.689Z,28.03
2019-04-10T15:13:09.211Z,28.70
2019-04-10T15:15:44.812Z,31.47
2019-04-10T15:18:24.841Z,31.20
2019-04-10T15:21:04.941Z,30.83
2019-04-10T15:23:44.926Z,30.80
2019-04-10T15:26:25.954Z,29.27
2019-04-10T15:29:06.066Z,28.67
2019-04-10T15:31:46.265Z,29.20
2019-04-10T15:34:28.210Z,29.03
2019-04-10T15:37:08.891Z,29.63
2019-04-10T15:39:49.633Z,29.17
2019-04-10T15:42:30.215Z,28.40
2019-04-10T15:45:10.615Z,28.07
2019-04-10T15:47:54.157Z,29.33
2019-04-10T15:50:32.673Z,29.53
2019-04-10T15:53:00.288Z,30.00
2019-04-10T15:55:40.654Z,29.67
2019-04-10T15:58:21.523Z,30.00
2019-04-10T16:00:50.224Z,29.80
2019-04-10T16:03:38.688Z,30.43
2019-04-10T16:06:20.886Z,29.60
2019-04-10T16:09:01.062Z,29.80
2019-04-10T16:12:06.153Z,30.87
2019-04-10T16:14:46.667Z,31.97
2019-04-10T16:20:37.382Z,32.83
2019-04-10T16:23:21.846Z,33.40
2019-04-10T16:26:02.862Z,33.67
2019-04-10T16:28:43.087Z,33.70
2019-04-10T16:31:23.541Z,35.30
2019-04-10T16:34:05.125Z,36.43
2019-04-10T16:36:45.810Z,37.00
2019-04-10T16:39:24.317Z,38.20
2019-04-10T16:45:38.353Z,35.37
2019-04-10T16:48:18.916Z,37.23
2019-04-10T16:50:59.672Z,35.33
2019-04-10T16:53:39.747Z,36.27
2019-04-10T16:56:23.376Z,36.13
2019-04-10T16:59:03.279Z,34.83
2019-04-10T17:01:43.491Z,36.83
2019-04-10T17:04:23.527Z,36.60
2019-04-10T17:07:03.688Z,36.70
2019-04-10T17:09:43.872Z,36.67
2019-04-10T17:12:25.662Z,35.60
2019-04-10T17:15:06.167Z,37.20
2019-04-10T17:17:46.443Z,35.33
2019-04-10T17:20:27.033Z,36.10
2019-04-10T17:23:08.066Z,36.10
2019-04-10T17:25:48.756Z,36.07
2019-04-10T17:28:28.453Z,36.57
2019-04-10T17:31:10.942Z,37.67
2019-04-10T17:33:50.641Z,38.80
2019-04-10T17:39:43.885Z,39.23
2019-04-10T17:42:24.170Z,40.73
2019-04-10T17:45:04.602Z,40.60
2019-04-10T17:47:45.122Z,40.87
2019-04-10T17:50:25.650Z,39.67
2019-04-10T17:52:53.503Z,42.30
2019-04-10T17:55:41.884Z,42.30
2019-04-10T17:58:29.695Z,43.63
2019-04-10T18:01:13.092Z,46.07
2019-04-10T18:03:57.226Z,47.50
2019-04-10T18:06:35.459Z,47.07
2019-04-10T18:09:07.618Z,46.50
2019-04-10T18:11:54.661Z,47.13
2019-04-10T18:14:44.023Z,50.40
2019-04-10T18:17:24.926Z,53.47
2019-04-10T18:20:06.337Z,53.20
2019-04-10T18:22:46.866Z,53.87
2019-04-10T18:25:27.691Z,56.07
2019-04-10T18:27:55.402Z,55.17
2019-04-10T18:30:42.473Z,55.10
2019-04-10T18:33:30.750Z,55.20
2019-04-10T18:36:11.274Z,53.10
2019-04-10T18:38:51.505Z,54.53
2019-04-10T18:44:31.309Z,55.57
2019-04-10T18:47:11.405Z,56.07
2019-04-10T18:49:52.331Z,55.60
2019-04-10T18:52:33.104Z,55.73
2019-04-10T18:55:12.702Z,53.60
2019-04-10T18:57:52.978Z,57.67
2019-04-10T19:00:52.518Z,56.97
2019-04-10T19:03:56.873Z,57.70
2019-04-10T19:06:53.131Z,55.27
2019-04-10T19:09:36.844Z,59.73
2019-04-10T19:12:17.205Z,58.00
2019-04-10T19:14:58.307Z,59.73
2019-04-10T19:17:39.037Z,60.00
2019-04-10T19:20:20.569Z,61.13
2019-04-10T19:23:01.354Z,58.00
2019-04-10T19:25:30.239Z,62.57
2019-04-10T19:28:28.027Z,62.80
2019-04-10T19:31:11.061Z,62.50
2019-04-10T19:33:51.197Z,65.47
2019-04-10T19:36:34.297Z,67.27
2019-04-10T19:39:14.157Z,67.17
2019-04-10T19:41:55.632Z,68.97
2019-04-10T19:44:35.469Z,69.13
2019-04-10T19:47:16.233Z,70.53
2019-04-10T19:49:57.598Z,72.70
2019-04-10T19:52:38.370Z,77.50
2019-04-10T19:55:18.366Z,75.77
2019-04-10T20:00:58.986Z,79.07
2019-04-10T20:03:39.678Z,78.80
2019-04-10T20:06:22.108Z,79.77
2019-04-10T20:09:01.663Z,78.67
2019-04-10T20:11:46.292Z,80.77
2019-04-10T20:14:24.155Z,81.30
2019-04-10T20:17:05.949Z,82.33
2019-04-10T20:19:46.760Z,80.87
2019-04-10T20:22:28.227Z,85.03
2019-04-10T20:25:10.280Z,85.33
2019-04-10T20:27:50.290Z,85.03
2019-04-10T20:30:32.756Z,83.63
2019-04-10T20:33:14.483Z,87.07
2019-04-10T20:35:54.554Z,87.40
2019-04-10T20:38:34.905Z,84.97
2019-04-10T20:41:14.773Z,84.30
2019-04-10T20:43:55.386Z,85.00
2019-04-10T20:46:36.021Z,86.83
2019-04-10T20:49:16.295Z,86.40
2019-04-10T20:51:56.196Z,89.37
2019-04-10T20:54:37.101Z,85.57
2019-04-10T20:57:17.513Z,83.70
2019-04-10T20:59:57.742Z,83.53
2019-04-10T21:02:38.297Z,83.37
2019-04-10T21:05:19.766Z,81.83
2019-04-10T21:07:59.934Z,83.30
2019-04-10T21:10:40.881Z,83.63
2019-04-10T21:13:22.079Z,80.97
2019-04-10T21:16:02.968Z,80.40
2019-04-10T21:18:44.218Z,76.77
2019-04-10T21:21:24.646Z,75.30
2019-04-10T21:24:04.867Z,74.47
2019-04-10T21:26:44.889Z,73.73
2019-04-10T21:29:44.366Z,74.80
2019-04-10T21:35:29.317Z,66.53
2019-04-10T21:38:09.313Z,66.87
2019-04-10T21:40:51.812Z,66.83
2019-04-10T21:43:32.009Z,65.17
2019-04-10T21:46:12.299Z,65.73
2019-04-10T21:48:51.987Z,65.43
2019-04-10T21:51:33.477Z,66.27
2019-04-10T21:54:14.028Z,64.87
2019-04-10T21:56:55.503Z,65.70
2019-04-10T21:59:35.286Z,63.90
2019-04-10T22:02:15.590Z,63.93
2019-04-10T22:04:55.809Z,63.87
2019-04-10T22:07:55.185Z,63.43
2019-04-10T22:10:40.026Z,63.40
2019-04-10T22:13:20.109Z,66.30
2019-04-10T22:16:01.689Z,62.87
2019-04-10T22:18:41.605Z,62.80
2019-04-10T22:21:22.768Z,62.07
2019-04-10T22:24:03.053Z,63.47
2019-04-10T22:26:42.878Z,63.03
2019-04-10T22:29:23.093Z,62.83
2019-04-10T22:32:04.130Z,61.07
2019-04-10T22:34:45.011Z,62.23
2019-04-10T22:37:25.796Z,64.67
2019-04-10T22:40:06.632Z,62.77
2019-04-10T22:42:48.193Z,63.07
2019-04-10T22:45:29.325Z,63.80
2019-04-10T22:48:10.895Z,62.00
2019-04-10T22:50:39.714Z,66.87
2019-04-10T22:53:26.837Z,66.47
2019-04-10T22:56:07.258Z,67.53
2019-04-10T22:58:47.302Z,66.43
2019-04-10T23:01:27.557Z,67.20
2019-04-10T23:04:08.024Z,65.40
2019-04-10T23:06:49.310Z,73.63
2019-04-10T23:09:30.610Z,70.23
2019-04-10T23:12:10.589Z,73.97
2019-04-10T23:14:51.149Z,70.97
2019-04-10T23:17:32.544Z,72.23
2019-04-10T23:20:12.924Z,70.77
2019-04-10T23:22:52.957Z,71.80
2019-04-10T23:25:34.225Z,70.93
2019-04-10T23:31:27.864Z,66.60
2019-04-10T23:34:08.389Z,68.07
2019-04-10T23:36:48.654Z,64.00
2019-04-10T23:39:16.362Z,64.93
2019-04-10T23:42:04.881Z,66.00
2019-04-10T23:44:53.248Z,66.10
2019-04-10T23:47:34.086Z,64.40
2019-04-10T23:50:15.099Z,61.47
2019-04-10T23:52:54.051Z,62.97
2019-04-10T23:55:41.944Z,62.70
2019-04-10T23:58:24.223Z,65.40
